createdAt,value
2018-12-03T00:01:59.104Z,959.7
2018-12-03T00:12:02.541Z,959.7
2018-12-03T00:22:05.989Z,959.3
2018-12-03T00:32:09.424Z,959.6
2018-12-03T00:42:12.857Z,959.8
2018-12-03T00:52:16.295Z,959.4
2018-12-03T01:02:19.731Z,959.5
2018-12-03T01:12:23.170Z,959.5
2018-12-03T01:22:26.603Z,959.4
2018-12-03T01:32:30.035Z,959.5
2018-12-03T01:42:33.458Z,959.6
2018-12-03T01:52:36.897Z,959.5
2018-12-03T02:02:40.318Z,959.3
2018-12-03T02:12:43.707Z,959.4
2018-12-03T02:22:47.140Z,959.3
2018-12-03T02:32:50.607Z,959.4
2018-12-03T02:42:54.052Z,959.3
2018-12-03T02:52:57.493Z,959.2
2018-12-03T03:03:00.936Z,959.2
2018-12-03T03:13:04.357Z,959.2
2018-12-03T03:23:07.769Z,959.3
2018-12-03T03:33:11.267Z,959.5
2018-12-03T03:43:14.750Z,959.5
2018-12-03T03:53:18.184Z,959.7
2018-12-03T04:03:21.661Z,959.5
2018-12-03T04:13:25.089Z,959.5
2018-12-03T04:23:28.523Z,959.6
2018-12-03T04:33:31.982Z,959.6
2018-12-03T04:43:35.441Z,959.6
2018-12-03T04:53:38.860Z,959.5
2018-12-03T05:03:42.292Z,959.5
2018-12-03T05:13:45.730Z,959.5
2018-12-03T05:23:49.171Z,959.5
2018-12-03T05:33:52.625Z,959.5
2018-12-03T05:43:56.058Z,959.5
2018-12-03T05:53:59.500Z,959.3
2018-12-03T06:04:02.901Z,959.3
2018-12-03T06:14:06.343Z,959.4
2018-12-03T06:24:09.740Z,959.4
2018-12-03T06:34:13.165Z,959.5
2018-12-03T06:44:16.616Z,959.5
2018-12-03T06:54:20.064Z,959.6
2018-12-03T07:04:23.502Z,959.7
2018-12-03T07:14:26.945Z,959.4
2018-12-03T07:24:30.366Z,959.3
2018-12-03T07:34:33.791Z,959.1
2018-12-03T07:44:37.576Z,959.1
2018-12-03T07:54:40.990Z,959
2018-12-03T08:04:44.454Z,959
2018-12-03T08:14:47.902Z,958.8
2018-12-03T08:24:51.334Z,958.9
2018-12-03T08:34:54.768Z,958.8
2018-12-03T08:44:58.212Z,958.6
2018-12-03T08:55:01.619Z,958.5
2018-12-03T09:05:05.057Z,958.5
2018-12-03T09:15:08.509Z,958.4
2018-12-03T09:25:11.911Z,958.7
2018-12-03T09:35:15.359Z,958.8
2018-12-03T09:45:18.810Z,958.7
2018-12-03T09:55:22.268Z,958.5
2018-12-03T10:05:25.679Z,958.2
2018-12-03T10:15:29.093Z,958.1
2018-12-03T10:25:32.496Z,957.8
2018-12-03T10:35:35.941Z,957.7
2018-12-03T10:45:39.373Z,957.6
2018-12-03T10:55:42.770Z,957.2
2018-12-03T11:05:46.201Z,956.9
2018-12-03T11:15:49.640Z,956.6
2018-12-03T11:25:53.043Z,956.3
2018-12-03T11:35:56.453Z,955.8
2018-12-03T11:45:59.892Z,955.5
2018-12-03T11:56:03.319Z,955.6
2018-12-03T12:06:06.744Z,955.4
2018-12-03T12:16:10.156Z,955.5
2018-12-03T12:26:13.593Z,955.6
2018-12-03T12:36:17.008Z,955.4
2018-12-03T12:46:20.436Z,955.4
2018-12-03T12:56:23.881Z,955.5
2018-12-03T13:06:27.347Z,955.4
2018-12-03T13:16:30.762Z,955.4
2018-12-03T13:26:34.182Z,955.6
2018-12-03T13:36:37.601Z,955.5
2018-12-03T13:46:41.039Z,955.4
2018-12-03T13:56:44.468Z,955.4
2018-12-03T14:06:47.872Z,955.1
2018-12-03T14:16:51.267Z,955.2
2018-12-03T14:26:55.011Z,955.2
2018-12-03T14:36:58.460Z,955.1
2018-12-03T14:47:01.918Z,955.2
2018-12-03T14:57:05.366Z,955.3
2018-12-03T15:07:08.820Z,955.2
2018-12-03T15:17:12.253Z,955.2
2018-12-03T15:27:15.662Z,955.2
2018-12-03T15:37:19.100Z,955.2
2018-12-03T15:47:22.513Z,955.1
2018-12-03T15:57:25.961Z,954.8
2018-12-03T16:07:29.366Z,954.8
2018-12-03T16:17:32.769Z,954.7
2018-12-03T16:27:36.233Z,954.9
2018-12-03T16:37:39.677Z,954.8
2018-12-03T16:47:43.078Z,954.8
2018-12-03T16:57:46.520Z,954.6
2018-12-03T17:07:49.962Z,954.7
2018-12-03T17:17:53.414Z,954.6
2018-12-03T17:27:56.865Z,954.6
2018-12-03T17:38:00.327Z,954.6
2018-12-03T17:48:03.738Z,954.6
2018-12-03T17:58:07.184Z,954.6
2018-12-03T18:08:10.626Z,954.5
2018-12-03T18:18:14.084Z,954.7
2018-12-03T18:28:17.562Z,954.8
2018-12-03T18:38:20.988Z,954.8
2018-12-03T18:48:24.463Z,955.5
2018-12-03T18:58:27.881Z,955.6
2018-12-03T19:08:31.319Z,956.1
2018-12-03T19:18:34.752Z,956.1
2018-12-03T19:28:38.171Z,956.8
2018-12-03T19:38:41.614Z,956.8
2018-12-03T19:48:45.040Z,957.3
2018-12-03T19:58:48.430Z,958.3
2018-12-03T20:08:51.851Z,959
2018-12-03T20:18:55.347Z,959.4
2018-12-03T20:28:58.788Z,959.7
2018-12-03T20:39:02.226Z,960.2
2018-12-03T20:49:05.673Z,960.9
2018-12-03T20:59:10.115Z,961.2
2018-12-03T21:09:13.557Z,961.4
2018-12-03T21:19:17.053Z,961.5
2018-12-03T21:29:20.502Z,961.5
2018-12-03T21:39:23.937Z,961.5
2018-12-03T21:49:27.379Z,961.4
2018-12-03T21:59:30.803Z,961.8
2018-12-03T22:09:34.236Z,961.7
2018-12-03T22:19:37.671Z,961.7
2018-12-03T22:29:41.119Z,961.7
2018-12-03T22:39:46.954Z,961.7
2018-12-03T22:49:50.369Z,961.5
2018-12-03T22:59:53.827Z,961.6
2018-12-03T23:09:57.264Z,961.6
2018-12-03T23:20:00.694Z,961.4
2018-12-03T23:30:04.157Z,961.5
2018-12-03T23:40:07.575Z,961.8
2018-12-03T23:50:11.025Z,961.8
